sensor_id;sensor_type;location;lat;lon;timestamp;P1;durP1;ratioP1;P2;durP2;ratioP2
63114;SDS011;49208;50.874;6.466;2022-08-21T05:03:36;7.45;;;4.22;;
63114;SDS011;49208;50.874;6.466;2022-08-21T05:06:03;5.53;;;3.67;;
63114;SDS011;49208;50.874;6.466;2022-08-21T05:08:31;8.00;;;4.28;;
63114;SDS011;49208;50.874;6.466;2022-08-21T05:10:57;7.18;;;4.72;;
63114;SDS011;49208;50.874;6.466;2022-08-21T05:13:23;7.45;;;4.10;;
63114;SDS011;49208;50.874;6.466;2022-08-21T05:15:48;7.63;;;4.25;;
63114;SDS011;49208;50.874;6.466;2022-08-21T05:18:13;8.43;;;4.35;;
63114;SDS011;49208;50.874;6.466;2022-08-21T05:20:39;6.28;;;3.72;;
63114;SDS011;49208;50.874;6.466;2022-08-21T05:23:08;7.15;;;3.80;;
63114;SDS011;49208;50.874;6.466;2022-08-21T05:25:35;7.72;;;4.30;;
63114;SDS011;49208;50.874;6.466;2022-08-21T05:28:01;5.85;;;3.60;;
63114;SDS011;49208;50.874;6.466;2022-08-21T05:30:26;7.18;;;3.63;;
63114;SDS011;49208;50.874;6.466;2022-08-21T05:32:56;7.25;;;3.47;;
63114;SDS011;49208;50.874;6.466;2022-08-21T05:35:26;5.85;;;3.35;;
63114;SDS011;49208;50.874;6.466;2022-08-21T05:37:52;6.25;;;4.07;;
63114;SDS011;49208;50.874;6.466;2022-08-21T05:40:18;5.80;;;3.35;;
63114;SDS011;49208;50.874;6.466;2022-08-21T05:42:43;7.57;;;3.90;;
63114;SDS011;49208;50.874;6.466;2022-08-21T05:45:09;7.43;;;3.42;;
63114;SDS011;49208;50.874;6.466;2022-08-21T05:47:35;7.35;;;4.28;;
63114;SDS011;49208;50.874;6.466;2022-08-21T05:50:01;7.30;;;3.75;;
63114;SDS011;49208;50.874;6.466;2022-08-21T05:52:26;7.20;;;4.05;;
63114;SDS011;49208;50.874;6.466;2022-08-21T05:54:52;6.55;;;4.18;;
63114;SDS011;49208;50.874;6.466;2022-08-21T05:57:19;9.10;;;4.28;;
63114;SDS011;49208;50.874;6.466;2022-08-21T05:59:45;6.03;;;3.27;;
63114;SDS011;49208;50.874;6.466;2022-08-21T06:02:11;8.30;;;4.25;;
63114;SDS011;49208;50.874;6.466;2022-08-21T06:04:37;6.22;;;4.05;;
63114;SDS011;49208;50.874;6.466;2022-08-21T06:07:03;4.97;;;3.13;;
63114;SDS011;49208;50.874;6.466;2022-08-21T06:09:29;6.28;;;3.53;;
63114;SDS011;49208;50.874;6.466;2022-08-21T06:11:54;5.60;;;4.10;;
63114;SDS011;49208;50.874;6.466;2022-08-21T06:14:20;5.88;;;3.60;;
63114;SDS011;49208;50.874;6.466;2022-08-21T06:16:45;6.07;;;3.70;;
63114;SDS011;49208;50.874;6.466;2022-08-21T06:19:11;5.35;;;3.25;;
63114;SDS011;49208;50.874;6.466;2022-08-21T06:21:37;7.20;;;3.03;;
63114;SDS011;49208;50.874;6.466;2022-08-21T06:24:02;6.28;;;2.65;;
63114;SDS011;49208;50.874;6.466;2022-08-21T06:28:54;7.07;;;2.80;;
63114;SDS011;49208;50.874;6.466;2022-08-21T06:31:21;5.45;;;2.50;;
63114;SDS011;49208;50.874;6.466;2022-08-21T06:33:48;6.25;;;2.67;;
63114;SDS011;49208;50.874;6.466;2022-08-21T06:36:13;8.37;;;2.93;;
63114;SDS011;49208;50.874;6.466;2022-08-21T06:38:39;8.57;;;3.43;;
63114;SDS011;49208;50.874;6.466;2022-08-21T06:41:04;5.37;;;3.10;;
63114;SDS011;49208;50.874;6.466;2022-08-21T06:43:30;9.48;;;3.72;;
63114;SDS011;49208;50.874;6.466;2022-08-21T06:45:56;5.90;;;2.03;;
63114;SDS011;49208;50.874;6.466;2022-08-21T06:48:21;5.43;;;2.17;;
63114;SDS011;49208;50.874;6.466;2022-08-21T06:50:47;9.33;;;3.07;;
63114;SDS011;49208;50.874;6.466;2022-08-21T06:53:13;11.77;;;3.27;;
63114;SDS011;49208;50.874;6.466;2022-08-21T06:55:40;5.50;;;2.92;;
63114;SDS011;49208;50.874;6.466;2022-08-21T06:58:07;7.18;;;2.83;;
63114;SDS011;49208;50.874;6.466;2022-08-21T07:00:32;8.98;;;2.83;;
63114;SDS011;49208;50.874;6.466;2022-08-21T07:02:58;5.10;;;2.80;;
63114;SDS011;49208;50.874;6.466;2022-08-21T07:05:27;6.20;;;2.67;;
63114;SDS011;49208;50.874;6.466;2022-08-21T07:07:53;6.82;;;2.88;;
63114;SDS011;49208;50.874;6.466;2022-08-21T07:10:19;8.00;;;2.63;;
63114;SDS011;49208;50.874;6.466;2022-08-21T07:12:44;5.60;;;2.10;;
63114;SDS011;49208;50.874;6.466;2022-08-21T07:15:10;8.77;;;2.70;;
63114;SDS011;49208;50.874;6.466;2022-08-21T07:17:35;6.63;;;1.87;;
63114;SDS011;49208;50.874;6.466;2022-08-21T07:20:01;5.43;;;1.70;;
63114;SDS011;49208;50.874;6.466;2022-08-21T07:22:27;8.13;;;1.85;;
63114;SDS011;49208;50.874;6.466;2022-08-21T07:24:54;6.30;;;1.63;;
63114;SDS011;49208;50.874;6.466;2022-08-21T07:27:20;4.90;;;1.52;;
63114;SDS011;49208;50.874;6.466;2022-08-21T07:29:45;6.23;;;1.80;;
63114;SDS011;49208;50.874;6.466;2022-08-21T07:32:10;3.63;;;1.37;;
63114;SDS011;49208;50.874;6.466;2022-08-21T07:34:36;5.57;;;1.67;;
63114;SDS011;49208;50.874;6.466;2022-08-21T07:37:01;4.83;;;1.50;;
63114;SDS011;49208;50.874;6.466;2022-08-21T07:39:26;3.97;;;1.20;;
63114;SDS011;49208;50.874;6.466;2022-08-21T07:41:52;7.20;;;1.47;;
63114;SDS011;49208;50.874;6.466;2022-08-21T07:44:17;4.23;;;1.40;;
63114;SDS011;49208;50.874;6.466;2022-08-21T07:46:43;4.17;;;1.30;;
63114;SDS011;49208;50.874;6.466;2022-08-21T07:49:08;4.17;;;1.50;;
63114;SDS011;49208;50.874;6.466;2022-08-21T07:51:33;7.37;;;1.70;;
63114;SDS011;49208;50.874;6.466;2022-08-21T07:53:59;13.07;;;2.43;;
63114;SDS011;49208;50.874;6.466;2022-08-21T07:56:26;3.42;;;1.30;;
63114;SDS011;49208;50.874;6.466;2022-08-21T07:58:51;4.15;;;1.17;;
63114;SDS011;49208;50.874;6.466;2022-08-21T08:01:17;6.50;;;1.40;;
63114;SDS011;49208;50.874;6.466;2022-08-21T08:03:43;4.95;;;1.05;;
63114;SDS011;49208;50.874;6.466;2022-08-21T08:06:10;5.50;;;1.25;;
63114;SDS011;49208;50.874;6.466;2022-08-21T08:08:40;5.10;;;1.25;;
63114;SDS011;49208;50.874;6.466;2022-08-21T08:11:07;3.40;;;1.10;;
63114;SDS011;49208;50.874;6.466;2022-08-21T08:14:09;4.57;;;1.38;;
63114;SDS011;49208;50.874;6.466;2022-08-21T08:16:28;4.07;;;1.40;;
63114;SDS011;49208;50.874;6.466;2022-08-21T08:18:54;5.57;;;1.30;;
63114;SDS011;49208;50.874;6.466;2022-08-21T08:21:20;4.73;;;1.03;;
63114;SDS011;49208;50.874;6.466;2022-08-21T08:23:46;4.73;;;1.50;;
63114;SDS011;49208;50.874;6.466;2022-08-21T08:26:12;4.07;;;1.23;;
63114;SDS011;49208;50.874;6.466;2022-08-21T08:28:37;4.70;;;1.40;;
63114;SDS011;49208;50.874;6.466;2022-08-21T08:31:03;5.57;;;1.47;;
63114;SDS011;49208;50.874;6.466;2022-08-21T08:33:29;8.10;;;1.60;;
63114;SDS011;49208;50.874;6.466;2022-08-21T08:35:54;5.67;;;1.80;;
63114;SDS011;49208;50.874;6.466;2022-08-21T08:38:21;5.13;;;1.17;;
63114;SDS011;49208;50.874;6.466;2022-08-21T08:40:55;5.32;;;1.50;;
63114;SDS011;49208;50.874;6.466;2022-08-21T08:43:52;5.78;;;1.52;;
63114;SDS011;49208;50.874;6.466;2022-08-21T08:46:31;3.05;;;0.85;;
63114;SDS011;49208;50.874;6.466;2022-08-21T08:49:09;4.70;;;1.17;;
63114;SDS011;49208;50.874;6.466;2022-08-21T08:51:46;3.63;;;1.17;;
63114;SDS011;49208;50.874;6.466;2022-08-21T08:54:22;5.45;;;1.50;;
63114;SDS011;49208;50.874;6.466;2022-08-21T08:56:57;6.32;;;1.65;;
63114;SDS011;49208;50.874;6.466;2022-08-21T08:59:32;4.07;;;1.35;;
63114;SDS011;49208;50.874;6.466;2022-08-21T09:02:04;5.15;;;1.00;;
63114;SDS011;49208;50.874;6.466;2022-08-21T09:04:30;4.40;;;1.17;;
63114;SDS011;49208;50.874;6.466;2022-08-21T09:10:13;4.28;;;1.33;;
63114;SDS011;49208;50.874;6.466;2022-08-21T09:28:34;6.20;;;1.50;;
63114;SDS011;49208;50.874;6.466;2022-08-21T09:31:22;4.20;;;1.38;;
63114;SDS011;49208;50.874;6.466;2022-08-21T09:33:48;4.25;;;1.65;;
63114;SDS011;49208;50.874;6.466;2022-08-21T09:36:22;8.07;;;1.77;;
63114;SDS011;49208;50.874;6.466;2022-08-21T09:38:54;4.43;;;1.30;;
63114;SDS011;49208;50.874;6.466;2022-08-21T09:41:26;5.50;;;1.60;;
63114;SDS011;49208;50.874;6.466;2022-08-21T09:43:56;4.60;;;1.38;;
63114;SDS011;49208;50.874;6.466;2022-08-21T09:46:26;6.07;;;2.67;;
63114;SDS011;49208;50.874;6.466;2022-08-21T09:48:53;4.43;;;1.30;;
63114;SDS011;49208;50.874;6.466;2022-08-21T09:51:22;8.75;;;1.67;;
63114;SDS011;49208;50.874;6.466;2022-08-21T09:56:28;4.28;;;1.50;;
63114;SDS011;49208;50.874;6.466;2022-08-21T10:01:47;5.13;;;1.40;;
63114;SDS011;49208;50.874;6.466;2022-08-21T10:04:14;4.20;;;1.60;;
63114;SDS011;49208;50.874;6.466;2022-08-21T10:06:40;4.63;;;1.60;;
63114;SDS011;49208;50.874;6.466;2022-08-21T10:09:10;8.97;;;1.70;;
63114;SDS011;49208;50.874;6.466;2022-08-21T10:11:38;4.90;;;1.30;;
63114;SDS011;49208;50.874;6.466;2022-08-21T10:14:08;5.85;;;1.50;;
63114;SDS011;49208;50.874;6.466;2022-08-21T10:22:18;5.05;;;1.70;;
63114;SDS011;49208;50.874;6.466;2022-08-21T10:25:13;5.82;;;1.73;;
63114;SDS011;49208;50.874;6.466;2022-08-21T10:30:11;5.47;;;1.67;;
63114;SDS011;49208;50.874;6.466;2022-08-21T10:32:49;5.70;;;1.70;;
63114;SDS011;49208;50.874;6.466;2022-08-21T10:36:02;7.03;;;1.73;;
63114;SDS011;49208;50.874;6.466;2022-08-21T10:46:59;4.32;;;1.30;;
63114;SDS011;49208;50.874;6.466;2022-08-21T10:54:52;6.30;;;1.45;;
63114;SDS011;49208;50.874;6.466;2022-08-21T10:59:52;5.72;;;1.77;;
63114;SDS011;49208;50.874;6.466;2022-08-21T11:02:33;6.88;;;1.80;;
63114;SDS011;49208;50.874;6.466;2022-08-21T11:05:17;7.70;;;2.20;;
63114;SDS011;49208;50.874;6.466;2022-08-21T11:07:48;5.38;;;1.70;;
63114;SDS011;49208;50.874;6.466;2022-08-21T11:10:25;6.90;;;1.38;;
63114;SDS011;49208;50.874;6.466;2022-08-21T11:12:58;5.25;;;1.40;;
63114;SDS011;49208;50.874;6.466;2022-08-21T11:18:36;4.40;;;1.48;;
63114;SDS011;49208;50.874;6.466;2022-08-21T11:26:56;6.40;;;1.75;;
63114;SDS011;49208;50.874;6.466;2022-08-21T11:29:29;4.95;;;1.70;;
63114;SDS011;49208;50.874;6.466;2022-08-21T11:34:36;5.88;;;1.80;;
63114;SDS011;49208;50.874;6.466;2022-08-21T11:39:53;4.60;;;1.48;;
63114;SDS011;49208;50.874;6.466;2022-08-21T11:42:48;5.72;;;1.60;;
63114;SDS011;49208;50.874;6.466;2022-08-21T11:48:24;7.05;;;2.22;;
63114;SDS011;49208;50.874;6.466;2022-08-21T11:51:22;4.80;;;1.63;;
63114;SDS011;49208;50.874;6.466;2022-08-21T11:54:16;4.22;;;1.60;;
63114;SDS011;49208;50.874;6.466;2022-08-21T11:56:45;6.30;;;1.90;;
63114;SDS011;49208;50.874;6.466;2022-08-21T11:59:17;5.32;;;1.58;;
63114;SDS011;49208;50.874;6.466;2022-08-21T12:01:47;6.95;;;1.88;;
63114;SDS011;49208;50.874;6.466;2022-08-21T12:06:56;6.47;;;1.65;;
63114;SDS011;49208;50.874;6.466;2022-08-21T12:11:51;3.78;;;1.55;;
63114;SDS011;49208;50.874;6.466;2022-08-21T12:14:40;4.13;;;1.52;;
63114;SDS011;49208;50.874;6.466;2022-08-21T12:17:07;7.20;;;1.83;;
63114;SDS011;49208;50.874;6.466;2022-08-21T12:19:34;4.68;;;1.95;;
63114;SDS011;49208;50.874;6.466;2022-08-21T12:24:35;4.10;;;1.50;;
63114;SDS011;49208;50.874;6.466;2022-08-21T12:29:45;4.15;;;1.30;;
63114;SDS011;49208;50.874;6.466;2022-08-21T12:34:40;6.37;;;1.77;;
63114;SDS011;49208;50.874;6.466;2022-08-21T12:40:10;5.45;;;1.90;;
63114;SDS011;49208;50.874;6.466;2022-08-21T12:42:44;5.43;;;1.48;;
63114;SDS011;49208;50.874;6.466;2022-08-21T12:46:00;5.13;;;1.60;;
63114;SDS011;49208;50.874;6.466;2022-08-21T12:48:13;4.80;;;1.60;;
63114;SDS011;49208;50.874;6.466;2022-08-21T12:50:46;4.53;;;1.35;;
63114;SDS011;49208;50.874;6.466;2022-08-21T12:53:26;5.07;;;1.52;;
63114;SDS011;49208;50.874;6.466;2022-08-21T12:55:53;6.68;;;1.80;;
63114;SDS011;49208;50.874;6.466;2022-08-21T12:58:25;5.53;;;1.30;;
63114;SDS011;49208;50.874;6.466;2022-08-21T13:00:53;4.63;;;1.60;;
63114;SDS011;49208;50.874;6.466;2022-08-21T13:03:22;6.05;;;1.33;;
63114;SDS011;49208;50.874;6.466;2022-08-21T13:05:48;4.82;;;1.65;;
63114;SDS011;49208;50.874;6.466;2022-08-21T13:08:17;4.43;;;1.67;;
63114;SDS011;49208;50.874;6.466;2022-08-21T13:10:44;4.68;;;1.60;;
63114;SDS011;49208;50.874;6.466;2022-08-21T13:13:18;4.53;;;1.60;;
63114;SDS011;49208;50.874;6.466;2022-08-21T13:15:46;5.30;;;1.63;;
63114;SDS011;49208;50.874;6.466;2022-08-21T13:18:22;6.87;;;1.83;;
63114;SDS011;49208;50.874;6.466;2022-08-21T13:20:50;3.20;;;1.23;;
63114;SDS011;49208;50.874;6.466;2022-08-21T13:25:49;5.07;;;1.48;;
63114;SDS011;49208;50.874;6.466;2022-08-21T13:28:15;4.33;;;1.30;;
63114;SDS011;49208;50.874;6.466;2022-08-21T13:30:42;3.20;;;1.40;;
63114;SDS011;49208;50.874;6.466;2022-08-21T13:33:12;3.17;;;1.02;;
63114;SDS011;49208;50.874;6.466;2022-08-21T13:38:14;4.75;;;1.52;;
63114;SDS011;49208;50.874;6.466;2022-08-21T13:43:12;3.88;;;1.52;;
63114;SDS011;49208;50.874;6.466;2022-08-21T13:45:47;3.95;;;1.58;;
63114;SDS011;49208;50.874;6.466;2022-08-21T13:48:17;4.07;;;1.48;;
63114;SDS011;49208;50.874;6.466;2022-08-21T13:50:43;2.50;;;1.17;;
63114;SDS011;49208;50.874;6.466;2022-08-21T13:53:28;4.87;;;1.40;;
63114;SDS011;49208;50.874;6.466;2022-08-21T13:55:54;4.00;;;1.60;;
63114;SDS011;49208;50.874;6.466;2022-08-21T13:58:24;5.03;;;1.52;;
63114;SDS011;49208;50.874;6.466;2022-08-21T14:00:51;4.93;;;1.35;;
63114;SDS011;49208;50.874;6.466;2022-08-21T14:03:26;3.95;;;1.27;;
63114;SDS011;49208;50.874;6.466;2022-08-21T14:05:52;4.85;;;1.20;;
63114;SDS011;49208;50.874;6.466;2022-08-21T14:08:37;4.40;;;1.47;;
63114;SDS011;49208;50.874;6.466;2022-08-21T14:11:06;4.82;;;1.30;;
63114;SDS011;49208;50.874;6.466;2022-08-21T14:13:44;3.65;;;1.38;;
63114;SDS011;49208;50.874;6.466;2022-08-21T14:16:18;3.20;;;1.10;;
63114;SDS011;49208;50.874;6.466;2022-08-21T14:18:48;3.25;;;1.20;;
63114;SDS011;49208;50.874;6.466;2022-08-21T14:21:31;3.33;;;1.38;;
63114;SDS011;49208;50.874;6.466;2022-08-21T14:24:03;6.10;;;1.40;;
63114;SDS011;49208;50.874;6.466;2022-08-21T14:26:29;4.43;;;1.33;;
63114;SDS011;49208;50.874;6.466;2022-08-21T14:28:58;4.93;;;1.52;;
63114;SDS011;49208;50.874;6.466;2022-08-21T14:31:28;4.75;;;1.05;;
63114;SDS011;49208;50.874;6.466;2022-08-21T14:33:57;5.82;;;1.13;;
63114;SDS011;49208;50.874;6.466;2022-08-21T14:36:23;3.97;;;0.93;;
63114;SDS011;49208;50.874;6.466;2022-08-21T14:38:49;4.77;;;1.03;;
63114;SDS011;49208;50.874;6.466;2022-08-21T14:41:18;5.18;;;1.30;;
63114;SDS011;49208;50.874;6.466;2022-08-21T14:43:47;3.90;;;1.10;;
63114;SDS011;49208;50.874;6.466;2022-08-21T14:46:16;4.38;;;1.30;;
63114;SDS011;49208;50.874;6.466;2022-08-21T14:48:49;2.28;;;1.10;;
63114;SDS011;49208;50.874;6.466;2022-08-21T14:51:16;4.15;;;1.65;;
63114;SDS011;49208;50.874;6.466;2022-08-21T14:53:42;3.67;;;1.50;;
63114;SDS011;49208;50.874;6.466;2022-08-21T14:56:08;3.77;;;1.60;;
63114;SDS011;49208;50.874;6.466;2022-08-21T14:58:46;5.18;;;1.23;;
63114;SDS011;49208;50.874;6.466;2022-08-21T15:01:22;3.97;;;1.30;;
63114;SDS011;49208;50.874;6.466;2022-08-21T15:04:32;3.95;;;1.10;;
63114;SDS011;49208;50.874;6.466;2022-08-21T15:06:58;3.85;;;0.95;;
63114;SDS011;49208;50.874;6.466;2022-08-21T15:09:23;4.63;;;1.10;;
63114;SDS011;49208;50.874;6.466;2022-08-21T15:11:53;4.40;;;1.23;;
63114;SDS011;49208;50.874;6.466;2022-08-21T15:14:23;2.65;;;1.20;;
63114;SDS011;49208;50.874;6.466;2022-08-21T15:16:51;3.42;;;1.40;;
63114;SDS011;49208;50.874;6.466;2022-08-21T15:19:16;2.97;;;1.13;;
63114;SDS011;49208;50.874;6.466;2022-08-21T15:21:42;3.00;;;1.20;;
63114;SDS011;49208;50.874;6.466;2022-08-21T15:24:08;3.40;;;1.30;;
63114;SDS011;49208;50.874;6.466;2022-08-21T15:26:33;5.33;;;1.20;;
63114;SDS011;49208;50.874;6.466;2022-08-21T15:28:59;3.67;;;1.23;;
63114;SDS011;49208;50.874;6.466;2022-08-21T15:31:25;5.13;;;1.27;;
63114;SDS011;49208;50.874;6.466;2022-08-21T15:33:51;3.50;;;1.10;;
63114;SDS011;49208;50.874;6.466;2022-08-21T15:36:17;4.17;;;1.53;;
63114;SDS011;49208;50.874;6.466;2022-08-21T15:38:43;4.17;;;1.30;;
63114;SDS011;49208;50.874;6.466;2022-08-21T15:41:09;2.88;;;1.15;;
63114;SDS011;49208;50.874;6.466;2022-08-21T15:43:45;3.03;;;0.90;;
63114;SDS011;49208;50.874;6.466;2022-08-21T15:46:13;4.03;;;1.13;;
63114;SDS011;49208;50.874;6.466;2022-08-21T15:48:40;2.75;;;1.05;;
63114;SDS011;49208;50.874;6.466;2022-08-21T15:51:06;4.03;;;1.27;;
63114;SDS011;49208;50.874;6.466;2022-08-21T15:53:31;2.63;;;1.10;;
63114;SDS011;49208;50.874;6.466;2022-08-21T15:56:00;3.75;;;1.10;;
63114;SDS011;49208;50.874;6.466;2022-08-21T15:58:26;4.32;;;1.00;;
63114;SDS011;49208;50.874;6.466;2022-08-21T16:00:52;4.22;;;1.55;;
63114;SDS011;49208;50.874;6.466;2022-08-21T16:03:17;4.30;;;1.88;;
63114;SDS011;49208;50.874;6.466;2022-08-21T16:05:46;4.07;;;1.50;;
63114;SDS011;49208;50.874;6.466;2022-08-21T16:08:18;3.97;;;1.40;;
63114;SDS011;49208;50.874;6.466;2022-08-21T16:10:44;5.03;;;1.30;;
63114;SDS011;49208;50.874;6.466;2022-08-21T16:13:14;4.60;;;1.33;;
63114;SDS011;49208;50.874;6.466;2022-08-21T16:15:45;4.53;;;1.20;;
63114;SDS011;49208;50.874;6.466;2022-08-21T16:18:10;4.20;;;1.20;;
63114;SDS011;49208;50.874;6.466;2022-08-21T16:20:36;4.40;;;1.30;;
63114;SDS011;49208;50.874;6.466;2022-08-21T16:23:01;5.90;;;1.65;;
63114;SDS011;49208;50.874;6.466;2022-08-21T16:25:27;4.35;;;1.50;;
63114;SDS011;49208;50.874;6.466;2022-08-21T16:27:54;4.75;;;1.33;;
63114;SDS011;49208;50.874;6.466;2022-08-21T16:30:22;4.72;;;1.33;;
63114;SDS011;49208;50.874;6.466;2022-08-21T16:32:47;3.17;;;1.25;;
63114;SDS011;49208;50.874;6.466;2022-08-21T16:35:14;5.00;;;1.35;;
63114;SDS011;49208;50.874;6.466;2022-08-21T16:37:42;6.85;;;1.70;;
63114;SDS011;49208;50.874;6.466;2022-08-21T16:40:08;5.27;;;1.40;;
63114;SDS011;49208;50.874;6.466;2022-08-21T16:42:35;5.80;;;1.45;;
63114;SDS011;49208;50.874;6.466;2022-08-21T16:45:04;4.18;;;1.50;;
63114;SDS011;49208;50.874;6.466;2022-08-21T16:47:31;5.13;;;1.60;;
63114;SDS011;49208;50.874;6.466;2022-08-21T16:49:56;4.45;;;1.52;;
63114;SDS011;49208;50.874;6.466;2022-08-21T16:52:22;4.82;;;1.48;;
63114;SDS011;49208;50.874;6.466;2022-08-21T16:54:48;5.22;;;1.33;;
63114;SDS011;49208;50.874;6.466;2022-08-21T16:57:13;4.03;;;1.48;;
63114;SDS011;49208;50.874;6.466;2022-08-21T16:59:39;2.97;;;1.20;;
63114;SDS011;49208;50.874;6.466;2022-08-21T17:02:05;6.18;;;1.73;;
63114;SDS011;49208;50.874;6.466;2022-08-21T17:04:37;5.97;;;1.63;;
63114;SDS011;49208;50.874;6.466;2022-08-21T17:07:02;5.22;;;1.45;;
63114;SDS011;49208;50.874;6.466;2022-08-21T17:09:27;3.67;;;1.30;;
63114;SDS011;49208;50.874;6.466;2022-08-21T17:11:53;4.45;;;1.30;;
63114;SDS011;49208;50.874;6.466;2022-08-21T17:14:18;3.95;;;1.33;;
63114;SDS011;49208;50.874;6.466;2022-08-21T17:16:49;11.20;;;1.60;;
63114;SDS011;49208;50.874;6.466;2022-08-21T17:19:17;5.18;;;1.42;;
63114;SDS011;49208;50.874;6.466;2022-08-21T17:21:43;4.32;;;1.63;;
63114;SDS011;49208;50.874;6.466;2022-08-21T17:24:08;5.43;;;1.45;;
63114;SDS011;49208;50.874;6.466;2022-08-21T17:26:34;3.05;;;1.33;;
63114;SDS011;49208;50.874;6.466;2022-08-21T17:29:00;4.82;;;1.38;;
63114;SDS011;49208;50.874;6.466;2022-08-21T17:31:26;3.08;;;1.05;;
63114;SDS011;49208;50.874;6.466;2022-08-21T17:33:53;1.95;;;0.90;;
63114;SDS011;49208;50.874;6.466;2022-08-21T17:36:28;4.43;;;1.45;;
63114;SDS011;49208;50.874;6.466;2022-08-21T17:38:55;2.28;;;1.00;;
63114;SDS011;49208;50.874;6.466;2022-08-21T17:41:22;6.07;;;1.42;;
63114;SDS011;49208;50.874;6.466;2022-08-21T17:43:48;6.60;;;1.65;;
63114;SDS011;49208;50.874;6.466;2022-08-21T17:48:46;4.78;;;1.10;;
63114;SDS011;49208;50.874;6.466;2022-08-21T17:51:11;4.40;;;1.30;;
63114;SDS011;49208;50.874;6.466;2022-08-21T17:53:37;5.63;;;1.80;;
63114;SDS011;49208;50.874;6.466;2022-08-21T17:56:03;3.38;;;1.35;;
63114;SDS011;49208;50.874;6.466;2022-08-21T17:58:30;3.53;;;1.05;;
63114;SDS011;49208;50.874;6.466;2022-08-21T18:00:56;5.78;;;1.33;;
63114;SDS011;49208;50.874;6.466;2022-08-21T18:03:21;3.83;;;1.23;;
63114;SDS011;49208;50.874;6.466;2022-08-21T18:05:48;4.13;;;1.20;;
63114;SDS011;49208;50.874;6.466;2022-08-21T18:08:16;3.67;;;1.30;;
63114;SDS011;49208;50.874;6.466;2022-08-21T18:10:42;5.63;;;1.50;;
63114;SDS011;49208;50.874;6.466;2022-08-21T18:13:09;4.55;;;1.42;;
63114;SDS011;49208;50.874;6.466;2022-08-21T18:15:38;3.30;;;1.33;;
63114;SDS011;49208;50.874;6.466;2022-08-21T18:18:14;3.75;;;1.30;;
63114;SDS011;49208;50.874;6.466;2022-08-21T18:20:39;5.22;;;1.63;;
63114;SDS011;49208;50.874;6.466;2022-08-21T18:23:06;3.88;;;1.10;;
63114;SDS011;49208;50.874;6.466;2022-08-21T18:25:32;3.55;;;1.30;;
63114;SDS011;49208;50.874;6.466;2022-08-21T18:27:59;3.53;;;1.35;;
63114;SDS011;49208;50.874;6.466;2022-08-21T18:30:29;5.80;;;1.40;;
63114;SDS011;49208;50.874;6.466;2022-08-21T18:35:22;4.10;;;1.07;;
63114;SDS011;49208;50.874;6.466;2022-08-21T18:37:47;3.42;;;1.30;;
63114;SDS011;49208;50.874;6.466;2022-08-21T18:40:13;6.43;;;2.47;;
63114;SDS011;49208;50.874;6.466;2022-08-21T18:42:40;5.05;;;1.58;;
63114;SDS011;49208;50.874;6.466;2022-08-21T18:45:10;6.57;;;1.30;;
63114;SDS011;49208;50.874;6.466;2022-08-21T18:47:42;5.40;;;1.30;;
63114;SDS011;49208;50.874;6.466;2022-08-21T18:50:11;5.05;;;1.25;;
63114;SDS011;49208;50.874;6.466;2022-08-21T18:52:39;4.45;;;1.08;;
63114;SDS011;49208;50.874;6.466;2022-08-21T18:55:05;6.72;;;1.30;;
63114;SDS011;49208;50.874;6.466;2022-08-21T18:57:31;3.65;;;1.10;;
63114;SDS011;49208;50.874;6.466;2022-08-21T19:02:23;5.87;;;1.47;;
63114;SDS011;49208;50.874;6.466;2022-08-21T19:04:49;3.00;;;1.33;;
63114;SDS011;49208;50.874;6.466;2022-08-21T19:07:15;4.63;;;1.20;;
63114;SDS011;49208;50.874;6.466;2022-08-21T19:09:42;5.15;;;1.20;;
63114;SDS011;49208;50.874;6.466;2022-08-21T19:12:10;3.20;;;1.50;;
63114;SDS011;49208;50.874;6.466;2022-08-21T19:14:42;3.90;;;1.52;;
63114;SDS011;49208;50.874;6.466;2022-08-21T19:17:08;4.60;;;1.27;;
63114;SDS011;49208;50.874;6.466;2022-08-21T19:19:33;3.33;;;1.65;;
63114;SDS011;49208;50.874;6.466;2022-08-21T19:22:00;3.78;;;1.35;;
63114;SDS011;49208;50.874;6.466;2022-08-21T19:24:25;3.45;;;1.15;;
63114;SDS011;49208;50.874;6.466;2022-08-21T19:26:50;4.60;;;1.50;;
63114;SDS011;49208;50.874;6.466;2022-08-21T19:29:16;3.65;;;1.30;;
63114;SDS011;49208;50.874;6.466;2022-08-21T19:31:43;4.50;;;1.40;;
63114;SDS011;49208;50.874;6.466;2022-08-21T19:36:43;5.78;;;1.38;;
63114;SDS011;49208;50.874;6.466;2022-08-21T19:39:09;5.00;;;1.30;;
63114;SDS011;49208;50.874;6.466;2022-08-21T19:44:06;2.47;;;1.10;;
63114;SDS011;49208;50.874;6.466;2022-08-21T19:46:34;5.25;;;1.35;;
63114;SDS011;49208;50.874;6.466;2022-08-21T19:49:01;2.85;;;1.20;;
63114;SDS011;49208;50.874;6.466;2022-08-21T19:51:28;3.83;;;1.27;;
63114;SDS011;49208;50.874;6.466;2022-08-21T19:53:54;3.33;;;1.17;;
63114;SDS011;49208;50.874;6.466;2022-08-21T19:56:25;3.55;;;1.20;;
63114;SDS011;49208;50.874;6.466;2022-08-21T19:58:52;3.55;;;1.17;;
63114;SDS011;49208;50.874;6.466;2022-08-21T20:01:19;5.82;;;1.40;;
63114;SDS011;49208;50.874;6.466;2022-08-21T20:03:46;2.63;;;1.48;;
63114;SDS011;49208;50.874;6.466;2022-08-21T20:06:13;2.78;;;1.20;;
63114;SDS011;49208;50.874;6.466;2022-08-21T20:08:43;2.83;;;1.17;;
63114;SDS011;49208;50.874;6.466;2022-08-21T20:13:36;5.23;;;1.50;;
63114;SDS011;49208;50.874;6.466;2022-08-21T20:16:05;3.13;;;1.35;;
63114;SDS011;49208;50.874;6.466;2022-08-21T20:18:34;4.35;;;1.40;;
63114;SDS011;49208;50.874;6.466;2022-08-21T20:23:28;4.00;;;1.40;;
63114;SDS011;49208;50.874;6.466;2022-08-21T20:25:54;4.18;;;1.17;;
63114;SDS011;49208;50.874;6.466;2022-08-21T20:28:19;4.63;;;1.40;;
63114;SDS011;49208;50.874;6.466;2022-08-21T20:30:44;4.22;;;1.20;;
63114;SDS011;49208;50.874;6.466;2022-08-21T20:33:11;3.50;;;1.30;;
63114;SDS011;49208;50.874;6.466;2022-08-21T20:35:37;3.22;;;1.42;;
63114;SDS011;49208;50.874;6.466;2022-08-21T20:38:03;2.78;;;1.30;;
63114;SDS011;49208;50.874;6.466;2022-08-21T20:40:29;4.43;;;1.75;;
63114;SDS011;49208;50.874;6.466;2022-08-21T20:42:54;3.40;;;1.52;;
63114;SDS011;49208;50.874;6.466;2022-08-21T20:45:28;6.05;;;1.67;;
63114;SDS011;49208;50.874;6.466;2022-08-21T20:47:57;3.95;;;1.60;;
63114;SDS011;49208;50.874;6.466;2022-08-21T20:50:36;3.75;;;1.67;;
63114;SDS011;49208;50.874;6.466;2022-08-21T20:53:09;9.00;;;2.00;;
63114;SDS011;49208;50.874;6.466;2022-08-21T20:55:37;3.55;;;1.50;;
63114;SDS011;49208;50.874;6.466;2022-08-21T20:58:10;4.80;;;1.83;;
63114;SDS011;49208;50.874;6.466;2022-08-21T21:01:03;4.22;;;1.52;;
63114;SDS011;49208;50.874;6.466;2022-08-21T21:03:32;3.28;;;1.10;;
63114;SDS011;49208;50.874;6.466;2022-08-21T21:06:00;4.30;;;1.80;;
63114;SDS011;49208;50.874;6.466;2022-08-21T21:16:23;5.82;;;1.75;;
63114;SDS011;49208;50.874;6.466;2022-08-21T21:18:57;4.18;;;1.60;;
63114;SDS011;49208;50.874;6.466;2022-08-21T21:21:33;4.50;;;2.60;;
63114;SDS011;49208;50.874;6.466;2022-08-21T21:26:53;5.35;;;2.50;;
63114;SDS011;49208;50.874;6.466;2022-08-21T21:29:26;6.45;;;2.40;;
63114;SDS011;49208;50.874;6.466;2022-08-21T21:31:56;4.53;;;2.40;;
63114;SDS011;49208;50.874;6.466;2022-08-21T21:34:22;8.63;;;2.72;;
63114;SDS011;49208;50.874;6.466;2022-08-21T21:37:03;6.00;;;2.17;;
63114;SDS011;49208;50.874;6.466;2022-08-21T21:50:24;8.07;;;2.50;;
63114;SDS011;49208;50.874;6.466;2022-08-21T21:53:09;6.75;;;2.63;;
63114;SDS011;49208;50.874;6.466;2022-08-21T22:04:21;7.10;;;2.50;;
63114;SDS011;49208;50.874;6.466;2022-08-21T22:07:01;9.05;;;2.63;;
63114;SDS011;49208;50.874;6.466;2022-08-21T22:09:45;6.47;;;2.50;;
63114;SDS011;49208;50.874;6.466;2022-08-21T22:15:15;4.72;;;2.30;;
63114;SDS011;49208;50.874;6.466;2022-08-21T22:22:54;6.63;;;2.30;;
63114;SDS011;49208;50.874;6.466;2022-08-21T22:25:23;7.03;;;2.47;;
63114;SDS011;49208;50.874;6.466;2022-08-21T22:27:59;5.43;;;2.38;;
